sensor_id;sensor_type;location;lat;lon;timestamp;temperature;humidity
60846;DHT22;47984;51.250;6.712;2022-08-19T00:00:07;19.60;48.40
60846;DHT22;47984;51.250;6.712;2022-08-19T00:02:44;19.50;48.40
60846;DHT22;47984;51.250;6.712;2022-08-19T00:05:16;19.50;48.50
60846;DHT22;47984;51.250;6.712;2022-08-19T00:07:49;19.50;48.50
60846;DHT22;47984;51.250;6.712;2022-08-19T00:10:21;19.50;48.50
60846;DHT22;47984;51.250;6.712;2022-08-19T00:12:51;19.40;48.50
60846;DHT22;47984;51.250;6.712;2022-08-19T00:15:19;19.40;48.60
60846;DHT22;47984;51.250;6.712;2022-08-19T00:17:51;19.40;48.60
60846;DHT22;47984;51.250;6.712;2022-08-19T00:20:22;19.40;48.60
60846;DHT22;47984;51.250;6.712;2022-08-19T00:22:51;19.30;48.50
60846;DHT22;47984;51.250;6.712;2022-08-19T00:25:35;19.30;48.60
60846;DHT22;47984;51.250;6.712;2022-08-19T00:28:09;19.30;48.60
60846;DHT22;47984;51.250;6.712;2022-08-19T00:30:43;19.20;48.60
60846;DHT22;47984;51.250;6.712;2022-08-19T00:33:11;19.20;48.70
60846;DHT22;47984;51.250;6.712;2022-08-19T00:35:40;19.20;48.70
60846;DHT22;47984;51.250;6.712;2022-08-19T00:38:09;19.20;49.40
60846;DHT22;47984;51.250;6.712;2022-08-19T00:40:41;19.20;48.70
60846;DHT22;47984;51.250;6.712;2022-08-19T00:43:21;19.20;48.70
60846;DHT22;47984;51.250;6.712;2022-08-19T00:45:56;19.10;48.70
60846;DHT22;47984;51.250;6.712;2022-08-19T00:48:30;19.10;48.80
60846;DHT22;47984;51.250;6.712;2022-08-19T00:51:06;19.10;48.80
60846;DHT22;47984;51.250;6.712;2022-08-19T00:53:39;19.10;48.80
60846;DHT22;47984;51.250;6.712;2022-08-19T00:56:08;19.00;48.80
60846;DHT22;47984;51.250;6.712;2022-08-19T00:58:40;19.00;48.90
60846;DHT22;47984;51.250;6.712;2022-08-19T01:01:18;19.00;48.90
60846;DHT22;47984;51.250;6.712;2022-08-19T01:03:47;19.00;48.90
60846;DHT22;47984;51.250;6.712;2022-08-19T01:06:40;18.90;48.90
60846;DHT22;47984;51.250;6.712;2022-08-19T01:09:11;18.90;48.90
60846;DHT22;47984;51.250;6.712;2022-08-19T01:11:41;18.90;48.90
60846;DHT22;47984;51.250;6.712;2022-08-19T01:14:32;18.90;49.00
60846;DHT22;47984;51.250;6.712;2022-08-19T01:17:10;18.80;48.90
60846;DHT22;47984;51.250;6.712;2022-08-19T01:19:43;18.80;49.00
60846;DHT22;47984;51.250;6.712;2022-08-19T01:22:51;18.80;49.00
60846;DHT22;47984;51.250;6.712;2022-08-19T01:28:20;18.80;49.10
60846;DHT22;47984;51.250;6.712;2022-08-19T01:31:13;18.70;49.20
60846;DHT22;47984;51.250;6.712;2022-08-19T01:33:54;18.70;49.20
60846;DHT22;47984;51.250;6.712;2022-08-19T01:36:35;18.70;49.20
60846;DHT22;47984;51.250;6.712;2022-08-19T01:39:04;18.70;49.20
60846;DHT22;47984;51.250;6.712;2022-08-19T01:41:48;18.60;49.20
60846;DHT22;47984;51.250;6.712;2022-08-19T01:44:18;18.60;49.30
60846;DHT22;47984;51.250;6.712;2022-08-19T01:46:56;18.60;49.30
60846;DHT22;47984;51.250;6.712;2022-08-19T01:49:27;18.60;49.30
60846;DHT22;47984;51.250;6.712;2022-08-19T01:52:00;18.60;49.30
60846;DHT22;47984;51.250;6.712;2022-08-19T01:54:31;18.60;49.40
60846;DHT22;47984;51.250;6.712;2022-08-19T01:57:03;18.50;49.30
60846;DHT22;47984;51.250;6.712;2022-08-19T01:59:41;18.50;49.30
60846;DHT22;47984;51.250;6.712;2022-08-19T02:02:19;18.50;49.40
60846;DHT22;47984;51.250;6.712;2022-08-19T02:04:52;18.50;49.40
60846;DHT22;47984;51.250;6.712;2022-08-19T02:07:22;18.50;49.50
60846;DHT22;47984;51.250;6.712;2022-08-19T02:09:52;18.40;49.40
60846;DHT22;47984;51.250;6.712;2022-08-19T02:12:19;18.40;49.40
60846;DHT22;47984;51.250;6.712;2022-08-19T02:14:49;18.40;49.50
60846;DHT22;47984;51.250;6.712;2022-08-19T02:17:26;18.40;49.50
60846;DHT22;47984;51.250;6.712;2022-08-19T02:19:57;18.40;49.50
60846;DHT22;47984;51.250;6.712;2022-08-19T02:22:30;18.40;49.50
60846;DHT22;47984;51.250;6.712;2022-08-19T02:25:01;18.30;49.60
60846;DHT22;47984;51.250;6.712;2022-08-19T02:27:33;18.30;49.50
60846;DHT22;47984;51.250;6.712;2022-08-19T02:30:03;18.30;49.60
60846;DHT22;47984;51.250;6.712;2022-08-19T02:32:49;18.30;49.60
60846;DHT22;47984;51.250;6.712;2022-08-19T02:35:46;18.30;49.60
60846;DHT22;47984;51.250;6.712;2022-08-19T02:38:16;18.20;49.60
60846;DHT22;47984;51.250;6.712;2022-08-19T02:40:56;18.20;49.70
60846;DHT22;47984;51.250;6.712;2022-08-19T02:43:32;18.20;49.70
60846;DHT22;47984;51.250;6.712;2022-08-19T02:46:29;18.20;49.80
60846;DHT22;47984;51.250;6.712;2022-08-19T02:49:05;18.10;49.80
60846;DHT22;47984;51.250;6.712;2022-08-19T02:51:49;18.10;49.80
60846;DHT22;47984;51.250;6.712;2022-08-19T02:54:22;18.10;49.80
60846;DHT22;47984;51.250;6.712;2022-08-19T02:56:51;18.10;49.80
60846;DHT22;47984;51.250;6.712;2022-08-19T02:59:24;18.10;49.80
60846;DHT22;47984;51.250;6.712;2022-08-19T03:02:03;18.10;49.90
60846;DHT22;47984;51.250;6.712;2022-08-19T03:04:36;18.10;49.90
60846;DHT22;47984;51.250;6.712;2022-08-19T03:07:06;18.10;49.90
60846;DHT22;47984;51.250;6.712;2022-08-19T03:09:37;18.00;49.90
60846;DHT22;47984;51.250;6.712;2022-08-19T03:12:06;18.00;50.00
60846;DHT22;47984;51.250;6.712;2022-08-19T03:14:34;18.00;50.00
60846;DHT22;47984;51.250;6.712;2022-08-19T03:17:24;18.00;50.00
60846;DHT22;47984;51.250;6.712;2022-08-19T03:19:54;18.00;50.00
60846;DHT22;47984;51.250;6.712;2022-08-19T03:22:24;18.00;50.00
60846;DHT22;47984;51.250;6.712;2022-08-19T03:24:54;17.90;50.00
60846;DHT22;47984;51.250;6.712;2022-08-19T03:27:22;17.90;50.00
60846;DHT22;47984;51.250;6.712;2022-08-19T03:30:00;17.90;50.00
60846;DHT22;47984;51.250;6.712;2022-08-19T03:32:28;17.90;50.10
60846;DHT22;47984;51.250;6.712;2022-08-19T03:34:58;17.90;50.10
60846;DHT22;47984;51.250;6.712;2022-08-19T03:37:31;17.90;50.10
60846;DHT22;47984;51.250;6.712;2022-08-19T03:40:03;17.80;50.10
60846;DHT22;47984;51.250;6.712;2022-08-19T03:42:32;17.80;50.20
60846;DHT22;47984;51.250;6.712;2022-08-19T03:45:15;17.80;50.20
60846;DHT22;47984;51.250;6.712;2022-08-19T03:47:46;17.80;50.30
60846;DHT22;47984;51.250;6.712;2022-08-19T03:50:16;17.80;50.30
60846;DHT22;47984;51.250;6.712;2022-08-19T03:52:50;17.80;50.30
60846;DHT22;47984;51.250;6.712;2022-08-19T03:55:21;17.80;50.30
60846;DHT22;47984;51.250;6.712;2022-08-19T03:57:48;17.70;50.30
60846;DHT22;47984;51.250;6.712;2022-08-19T04:00:18;17.70;50.30
60846;DHT22;47984;51.250;6.712;2022-08-19T04:02:46;17.70;50.30
60846;DHT22;47984;51.250;6.712;2022-08-19T04:05:30;17.70;50.40
60846;DHT22;47984;51.250;6.712;2022-08-19T04:08:04;17.70;50.40
60846;DHT22;47984;51.250;6.712;2022-08-19T04:10:40;17.70;50.40
60846;DHT22;47984;51.250;6.712;2022-08-19T04:13:19;17.70;50.50
60846;DHT22;47984;51.250;6.712;2022-08-19T04:15:50;17.60;50.40
60846;DHT22;47984;51.250;6.712;2022-08-19T04:18:17;17.70;50.60
60846;DHT22;47984;51.250;6.712;2022-08-19T04:20:47;17.60;50.50
60846;DHT22;47984;51.250;6.712;2022-08-19T04:23:19;17.60;50.50
60846;DHT22;47984;51.250;6.712;2022-08-19T04:25:49;17.60;50.50
60846;DHT22;47984;51.250;6.712;2022-08-19T04:28:26;17.60;50.60
60846;DHT22;47984;51.250;6.712;2022-08-19T04:30:53;17.60;50.60
60846;DHT22;47984;51.250;6.712;2022-08-19T04:33:22;17.60;50.60
60846;DHT22;47984;51.250;6.712;2022-08-19T04:35:54;17.60;50.60
60846;DHT22;47984;51.250;6.712;2022-08-19T04:38:21;17.60;50.60
60846;DHT22;47984;51.250;6.712;2022-08-19T04:40:51;17.60;50.60
60846;DHT22;47984;51.250;6.712;2022-08-19T04:43:37;17.60;50.60
60846;DHT22;47984;51.250;6.712;2022-08-19T04:46:06;17.60;50.80
60846;DHT22;47984;51.250;6.712;2022-08-19T04:48:34;17.50;50.60
60846;DHT22;47984;51.250;6.712;2022-08-19T04:51:09;17.50;50.60
60846;DHT22;47984;51.250;6.712;2022-08-19T04:53:40;17.50;50.70
60846;DHT22;47984;51.250;6.712;2022-08-19T04:56:15;17.50;50.70
60846;DHT22;47984;51.250;6.712;2022-08-19T04:58:43;17.50;50.80
60846;DHT22;47984;51.250;6.712;2022-08-19T05:01:12;17.50;50.80
60846;DHT22;47984;51.250;6.712;2022-08-19T05:03:41;17.50;50.80
60846;DHT22;47984;51.250;6.712;2022-08-19T05:06:09;17.50;50.80
60846;DHT22;47984;51.250;6.712;2022-08-19T05:08:39;17.50;50.90
60846;DHT22;47984;51.250;6.712;2022-08-19T05:13:43;17.50;51.00
60846;DHT22;47984;51.250;6.712;2022-08-19T05:16:11;17.50;51.10
60846;DHT22;47984;51.250;6.712;2022-08-19T05:18:39;17.40;51.00
60846;DHT22;47984;51.250;6.712;2022-08-19T05:21:25;17.40;51.10
60846;DHT22;47984;51.250;6.712;2022-08-19T05:24:12;17.40;51.20
60846;DHT22;47984;51.250;6.712;2022-08-19T05:26:42;17.40;51.20
60846;DHT22;47984;51.250;6.712;2022-08-19T05:29:16;17.40;51.20
60846;DHT22;47984;51.250;6.712;2022-08-19T05:31:48;17.40;51.30
60846;DHT22;47984;51.250;6.712;2022-08-19T05:34:17;17.40;51.40
60846;DHT22;47984;51.250;6.712;2022-08-19T05:36:48;17.40;51.40
60846;DHT22;47984;51.250;6.712;2022-08-19T05:39:18;17.50;51.50
60846;DHT22;47984;51.250;6.712;2022-08-19T05:41:47;17.50;51.60
60846;DHT22;47984;51.250;6.712;2022-08-19T05:44:19;17.50;51.60
60846;DHT22;47984;51.250;6.712;2022-08-19T05:46:47;17.50;51.60
60846;DHT22;47984;51.250;6.712;2022-08-19T05:49:15;17.50;51.70
60846;DHT22;47984;51.250;6.712;2022-08-19T05:51:42;17.50;51.80
60846;DHT22;47984;51.250;6.712;2022-08-19T05:54:09;17.50;51.80
60846;DHT22;47984;51.250;6.712;2022-08-19T05:56:40;17.50;51.90
60846;DHT22;47984;51.250;6.712;2022-08-19T05:59:10;17.60;51.90
60846;DHT22;47984;51.250;6.712;2022-08-19T06:01:38;17.50;51.90
60846;DHT22;47984;51.250;6.712;2022-08-19T06:04:07;17.60;52.00
60846;DHT22;47984;51.250;6.712;2022-08-19T06:06:34;17.60;52.00
60846;DHT22;47984;51.250;6.712;2022-08-19T06:09:03;17.60;52.00
60846;DHT22;47984;51.250;6.712;2022-08-19T06:11:35;17.60;52.10
60846;DHT22;47984;51.250;6.712;2022-08-19T06:14:06;17.70;52.10
60846;DHT22;47984;51.250;6.712;2022-08-19T06:16:42;17.70;52.20
60846;DHT22;47984;51.250;6.712;2022-08-19T06:19:14;17.70;52.20
60846;DHT22;47984;51.250;6.712;2022-08-19T06:21:43;17.70;52.20
60846;DHT22;47984;51.250;6.712;2022-08-19T06:24:12;17.80;52.20
60846;DHT22;47984;51.250;6.712;2022-08-19T06:26:43;17.80;52.20
60846;DHT22;47984;51.250;6.712;2022-08-19T06:29:18;17.80;52.20
60846;DHT22;47984;51.250;6.712;2022-08-19T06:31:50;17.90;52.30
60846;DHT22;47984;51.250;6.712;2022-08-19T06:34:19;17.90;52.30
60846;DHT22;47984;51.250;6.712;2022-08-19T06:36:47;17.90;52.40
60846;DHT22;47984;51.250;6.712;2022-08-19T06:39:20;17.90;52.40
60846;DHT22;47984;51.250;6.712;2022-08-19T06:41:52;18.00;52.50
60846;DHT22;47984;51.250;6.712;2022-08-19T06:44:25;18.00;52.50
60846;DHT22;47984;51.250;6.712;2022-08-19T06:46:57;18.10;52.60
60846;DHT22;47984;51.250;6.712;2022-08-19T06:49:24;18.10;52.60
60846;DHT22;47984;51.250;6.712;2022-08-19T06:51:51;18.10;52.60
60846;DHT22;47984;51.250;6.712;2022-08-19T06:54:18;18.20;52.60
60846;DHT22;47984;51.250;6.712;2022-08-19T06:56:46;18.20;52.60
60846;DHT22;47984;51.250;6.712;2022-08-19T06:59:17;18.30;52.60
60846;DHT22;47984;51.250;6.712;2022-08-19T07:01:47;18.30;52.60
60846;DHT22;47984;51.250;6.712;2022-08-19T07:04:24;18.40;52.60
60846;DHT22;47984;51.250;6.712;2022-08-19T07:07:00;18.40;52.70
60846;DHT22;47984;51.250;6.712;2022-08-19T07:09:48;18.40;52.60
60846;DHT22;47984;51.250;6.712;2022-08-19T07:12:26;18.50;52.70
60846;DHT22;47984;51.250;6.712;2022-08-19T07:14:56;18.60;52.80
60846;DHT22;47984;51.250;6.712;2022-08-19T07:17:24;18.60;52.80
60846;DHT22;47984;51.250;6.712;2022-08-19T07:19:52;18.60;52.70
60846;DHT22;47984;51.250;6.712;2022-08-19T07:22:20;18.70;52.70
60846;DHT22;47984;51.250;6.712;2022-08-19T07:24:50;18.80;52.70
60846;DHT22;47984;51.250;6.712;2022-08-19T07:27:18;18.80;52.70
60846;DHT22;47984;51.250;6.712;2022-08-19T07:29:50;18.90;52.80
60846;DHT22;47984;51.250;6.712;2022-08-19T07:32:22;18.90;52.80
60846;DHT22;47984;51.250;6.712;2022-08-19T07:34:49;19.00;52.80
60846;DHT22;47984;51.250;6.712;2022-08-19T07:37:16;19.00;52.80
60846;DHT22;47984;51.250;6.712;2022-08-19T07:39:43;19.10;52.80
60846;DHT22;47984;51.250;6.712;2022-08-19T07:42:10;19.20;52.90
60846;DHT22;47984;51.250;6.712;2022-08-19T07:44:39;19.20;52.90
60846;DHT22;47984;51.250;6.712;2022-08-19T07:47:11;19.30;52.90
60846;DHT22;47984;51.250;6.712;2022-08-19T07:49:59;19.30;52.80
60846;DHT22;47984;51.250;6.712;2022-08-19T07:52:26;19.40;53.50
60846;DHT22;47984;51.250;6.712;2022-08-19T07:54:53;19.50;52.90
60846;DHT22;47984;51.250;6.712;2022-08-19T07:57:20;19.50;52.80
60846;DHT22;47984;51.250;6.712;2022-08-19T07:59:47;19.60;52.90
60846;DHT22;47984;51.250;6.712;2022-08-19T08:02:14;19.70;52.90
60846;DHT22;47984;51.250;6.712;2022-08-19T08:04:41;19.70;52.80
60846;DHT22;47984;51.250;6.712;2022-08-19T08:07:27;19.70;52.80
60846;DHT22;47984;51.250;6.712;2022-08-19T08:10:12;19.80;52.80
60846;DHT22;47984;51.250;6.712;2022-08-19T08:12:47;19.90;52.80
60846;DHT22;47984;51.250;6.712;2022-08-19T08:15:34;19.90;52.80
60846;DHT22;47984;51.250;6.712;2022-08-19T08:18:09;20.00;52.80
60846;DHT22;47984;51.250;6.712;2022-08-19T08:20:37;20.00;52.80
60846;DHT22;47984;51.250;6.712;2022-08-19T08:23:04;20.10;52.80
60846;DHT22;47984;51.250;6.712;2022-08-19T08:25:49;20.10;52.80
60846;DHT22;47984;51.250;6.712;2022-08-19T08:28:16;20.20;52.80
60846;DHT22;47984;51.250;6.712;2022-08-19T08:30:45;20.20;52.70
60846;DHT22;47984;51.250;6.712;2022-08-19T08:33:21;20.30;52.70
60846;DHT22;47984;51.250;6.712;2022-08-19T08:36:01;20.40;52.70
60846;DHT22;47984;51.250;6.712;2022-08-19T08:38:31;20.40;52.60
60846;DHT22;47984;51.250;6.712;2022-08-19T08:41:08;20.40;52.60
60846;DHT22;47984;51.250;6.712;2022-08-19T08:43:54;20.50;52.60
60846;DHT22;47984;51.250;6.712;2022-08-19T08:46:25;20.60;52.60
60846;DHT22;47984;51.250;6.712;2022-08-19T08:51:51;20.70;52.50
60846;DHT22;47984;51.250;6.712;2022-08-19T08:54:38;20.70;52.50
60846;DHT22;47984;51.250;6.712;2022-08-19T08:57:25;20.80;52.50
60846;DHT22;47984;51.250;6.712;2022-08-19T09:00:15;20.80;52.40
60846;DHT22;47984;51.250;6.712;2022-08-19T09:03:03;20.80;52.40
60846;DHT22;47984;51.250;6.712;2022-08-19T09:11:10;21.00;52.50
60846;DHT22;47984;51.250;6.712;2022-08-19T09:17:05;21.00;52.30
60846;DHT22;47984;51.250;6.712;2022-08-19T09:19:35;21.10;52.20
60846;DHT22;47984;51.250;6.712;2022-08-19T09:22:18;21.20;52.20
60846;DHT22;47984;51.250;6.712;2022-08-19T09:24:53;21.30;52.20
60846;DHT22;47984;51.250;6.712;2022-08-19T09:27:22;21.30;52.10
60846;DHT22;47984;51.250;6.712;2022-08-19T09:30:14;21.30;52.10
60846;DHT22;47984;51.250;6.712;2022-08-19T09:32:46;21.40;52.10
60846;DHT22;47984;51.250;6.712;2022-08-19T09:35:19;21.40;52.00
60846;DHT22;47984;51.250;6.712;2022-08-19T09:37:50;21.50;52.00
60846;DHT22;47984;51.250;6.712;2022-08-19T09:40:24;21.50;52.00
60846;DHT22;47984;51.250;6.712;2022-08-19T09:42:52;21.50;52.00
60846;DHT22;47984;51.250;6.712;2022-08-19T09:45:20;21.60;52.10
60846;DHT22;47984;51.250;6.712;2022-08-19T09:47:51;21.60;52.00
60846;DHT22;47984;51.250;6.712;2022-08-19T09:50:20;21.70;52.00
60846;DHT22;47984;51.250;6.712;2022-08-19T09:52:48;21.70;52.00
60846;DHT22;47984;51.250;6.712;2022-08-19T09:55:23;21.80;52.00
60846;DHT22;47984;51.250;6.712;2022-08-19T09:57:59;21.80;52.00
60846;DHT22;47984;51.250;6.712;2022-08-19T10:00:27;21.90;51.90
60846;DHT22;47984;51.250;6.712;2022-08-19T10:02:54;22.00;52.00
60846;DHT22;47984;51.250;6.712;2022-08-19T10:05:22;22.00;51.90
60846;DHT22;47984;51.250;6.712;2022-08-19T10:08:08;22.00;51.80
60846;DHT22;47984;51.250;6.712;2022-08-19T10:10:42;22.10;51.80
60846;DHT22;47984;51.250;6.712;2022-08-19T10:13:13;22.20;51.80
60846;DHT22;47984;51.250;6.712;2022-08-19T10:15:42;22.20;51.80
60846;DHT22;47984;51.250;6.712;2022-08-19T10:18:14;22.30;51.70
60846;DHT22;47984;51.250;6.712;2022-08-19T10:20:47;22.30;51.60
60846;DHT22;47984;51.250;6.712;2022-08-19T10:23:18;22.40;51.60
60846;DHT22;47984;51.250;6.712;2022-08-19T10:25:46;22.40;51.60
60846;DHT22;47984;51.250;6.712;2022-08-19T10:28:14;22.50;51.60
60846;DHT22;47984;51.250;6.712;2022-08-19T10:30:45;22.50;51.50
60846;DHT22;47984;51.250;6.712;2022-08-19T10:33:13;22.60;51.50
60846;DHT22;47984;51.250;6.712;2022-08-19T10:36:06;22.60;51.50
60846;DHT22;47984;51.250;6.712;2022-08-19T10:38:36;22.70;51.50
60846;DHT22;47984;51.250;6.712;2022-08-19T10:41:11;22.70;51.30
60846;DHT22;47984;51.250;6.712;2022-08-19T10:43:40;22.70;51.30
60846;DHT22;47984;51.250;6.712;2022-08-19T10:46:08;22.80;51.30
60846;DHT22;47984;51.250;6.712;2022-08-19T10:48:42;22.80;51.30
60846;DHT22;47984;51.250;6.712;2022-08-19T10:51:11;22.90;51.20
60846;DHT22;47984;51.250;6.712;2022-08-19T10:53:57;23.00;51.20
60846;DHT22;47984;51.250;6.712;2022-08-19T10:56:26;23.00;51.10
60846;DHT22;47984;51.250;6.712;2022-08-19T10:59:13;23.00;51.10
60846;DHT22;47984;51.250;6.712;2022-08-19T11:01:41;23.10;51.10
60846;DHT22;47984;51.250;6.712;2022-08-19T11:04:10;23.10;51.10
60846;DHT22;47984;51.250;6.712;2022-08-19T11:06:40;23.10;51.00
60846;DHT22;47984;51.250;6.712;2022-08-19T11:09:10;23.20;51.00
60846;DHT22;47984;51.250;6.712;2022-08-19T11:11:38;23.20;51.00
60846;DHT22;47984;51.250;6.712;2022-08-19T11:14:11;23.30;50.90
60846;DHT22;47984;51.250;6.712;2022-08-19T11:16:40;23.30;50.80
60846;DHT22;47984;51.250;6.712;2022-08-19T11:19:09;23.40;50.80
60846;DHT22;47984;51.250;6.712;2022-08-19T11:21:41;23.40;50.80
60846;DHT22;47984;51.250;6.712;2022-08-19T11:24:17;23.40;50.60
60846;DHT22;47984;51.250;6.712;2022-08-19T11:26:48;23.50;50.70
60846;DHT22;47984;51.250;6.712;2022-08-19T11:29:17;23.50;50.60
60846;DHT22;47984;51.250;6.712;2022-08-19T11:31:47;23.50;50.50
60846;DHT22;47984;51.250;6.712;2022-08-19T11:34:17;23.60;50.60
60846;DHT22;47984;51.250;6.712;2022-08-19T11:36:46;23.60;50.50
60846;DHT22;47984;51.250;6.712;2022-08-19T11:39:15;23.60;50.50
60846;DHT22;47984;51.250;6.712;2022-08-19T11:41:44;23.70;50.50
60846;DHT22;47984;51.250;6.712;2022-08-19T11:44:11;23.70;50.40
60846;DHT22;47984;51.250;6.712;2022-08-19T11:46:41;23.80;50.40
60846;DHT22;47984;51.250;6.712;2022-08-19T11:49:13;23.80;50.90
60846;DHT22;47984;51.250;6.712;2022-08-19T11:51:42;23.80;50.10
60846;DHT22;47984;51.250;6.712;2022-08-19T11:54:10;23.90;50.10
60846;DHT22;47984;51.250;6.712;2022-08-19T11:56:38;23.90;50.00
60846;DHT22;47984;51.250;6.712;2022-08-19T11:59:05;23.90;50.00
60846;DHT22;47984;51.250;6.712;2022-08-19T12:01:40;24.00;49.90
60846;DHT22;47984;51.250;6.712;2022-08-19T12:04:09;24.00;49.80
60846;DHT22;47984;51.250;6.712;2022-08-19T12:06:37;24.00;49.80
60846;DHT22;47984;51.250;6.712;2022-08-19T12:09:06;24.00;49.70
60846;DHT22;47984;51.250;6.712;2022-08-19T12:11:36;24.00;49.60
60846;DHT22;47984;51.250;6.712;2022-08-19T12:14:04;24.10;49.60
60846;DHT22;47984;51.250;6.712;2022-08-19T12:16:32;24.10;49.60
60846;DHT22;47984;51.250;6.712;2022-08-19T12:19:00;24.10;49.60
60846;DHT22;47984;51.250;6.712;2022-08-19T12:21:31;24.20;49.60
60846;DHT22;47984;51.250;6.712;2022-08-19T12:24:00;24.20;49.50
60846;DHT22;47984;51.250;6.712;2022-08-19T12:26:29;24.20;49.40
60846;DHT22;47984;51.250;6.712;2022-08-19T12:28:58;24.20;49.40
60846;DHT22;47984;51.250;6.712;2022-08-19T12:31:27;24.20;49.20
60846;DHT22;47984;51.250;6.712;2022-08-19T12:33:54;24.20;49.20
60846;DHT22;47984;51.250;6.712;2022-08-19T12:36:22;24.30;49.20
60846;DHT22;47984;51.250;6.712;2022-08-19T12:38:49;24.30;49.10
60846;DHT22;47984;51.250;6.712;2022-08-19T12:41:18;24.30;49.10
60846;DHT22;47984;51.250;6.712;2022-08-19T12:43:49;24.30;49.00
60846;DHT22;47984;51.250;6.712;2022-08-19T12:46:17;24.30;48.90
60846;DHT22;47984;51.250;6.712;2022-08-19T12:48:47;24.30;48.90
60846;DHT22;47984;51.250;6.712;2022-08-19T12:51:20;24.40;48.90
60846;DHT22;47984;51.250;6.712;2022-08-19T12:53:48;24.40;48.80
60846;DHT22;47984;51.250;6.712;2022-08-19T12:56:16;24.40;48.80
60846;DHT22;47984;51.250;6.712;2022-08-19T12:58:48;24.40;48.70
60846;DHT22;47984;51.250;6.712;2022-08-19T13:01:16;24.40;48.70
60846;DHT22;47984;51.250;6.712;2022-08-19T13:03:49;24.40;48.60
60846;DHT22;47984;51.250;6.712;2022-08-19T13:06:18;24.40;48.50
60846;DHT22;47984;51.250;6.712;2022-08-19T13:08:46;24.40;48.40
60846;DHT22;47984;51.250;6.712;2022-08-19T13:11:15;24.40;48.30
60846;DHT22;47984;51.250;6.712;2022-08-19T13:13:45;24.40;48.30
60846;DHT22;47984;51.250;6.712;2022-08-19T13:16:14;24.40;48.30
60846;DHT22;47984;51.250;6.712;2022-08-19T13:18:42;24.40;48.20
60846;DHT22;47984;51.250;6.712;2022-08-19T13:21:13;24.40;48.20
60846;DHT22;47984;51.250;6.712;2022-08-19T13:23:40;24.40;48.20
60846;DHT22;47984;51.250;6.712;2022-08-19T13:26:08;24.40;48.20
60846;DHT22;47984;51.250;6.712;2022-08-19T13:28:36;24.50;48.10
60846;DHT22;47984;51.250;6.712;2022-08-19T13:31:31;24.50;48.00
60846;DHT22;47984;51.250;6.712;2022-08-19T13:34:25;24.50;48.00
60846;DHT22;47984;51.250;6.712;2022-08-19T13:36:58;24.50;47.90
60846;DHT22;47984;51.250;6.712;2022-08-19T13:39:26;24.50;47.90
60846;DHT22;47984;51.250;6.712;2022-08-19T13:41:53;24.60;47.90
60846;DHT22;47984;51.250;6.712;2022-08-19T13:44:20;24.50;47.70
60846;DHT22;47984;51.250;6.712;2022-08-19T13:46:48;24.60;47.80
60846;DHT22;47984;51.250;6.712;2022-08-19T13:49:20;24.60;47.80
60846;DHT22;47984;51.250;6.712;2022-08-19T13:51:47;24.50;47.60
60846;DHT22;47984;51.250;6.712;2022-08-19T13:54:14;24.60;48.30
60846;DHT22;47984;51.250;6.712;2022-08-19T13:56:42;24.60;47.60
60846;DHT22;47984;51.250;6.712;2022-08-19T13:59:11;24.60;47.50
60846;DHT22;47984;51.250;6.712;2022-08-19T14:01:38;24.60;47.50
60846;DHT22;47984;51.250;6.712;2022-08-19T14:04:05;24.60;47.50
60846;DHT22;47984;51.250;6.712;2022-08-19T14:06:33;24.60;47.50
60846;DHT22;47984;51.250;6.712;2022-08-19T14:09:00;24.60;47.50
60846;DHT22;47984;51.250;6.712;2022-08-19T14:11:29;24.60;47.40
60846;DHT22;47984;51.250;6.712;2022-08-19T14:13:56;24.70;47.40
60846;DHT22;47984;51.250;6.712;2022-08-19T14:16:23;24.60;47.30
60846;DHT22;47984;51.250;6.712;2022-08-19T14:18:50;24.70;47.30
60846;DHT22;47984;51.250;6.712;2022-08-19T14:21:19;24.70;47.20
60846;DHT22;47984;51.250;6.712;2022-08-19T14:23:50;24.70;47.10
60846;DHT22;47984;51.250;6.712;2022-08-19T14:26:18;24.70;47.10
60846;DHT22;47984;51.250;6.712;2022-08-19T14:28:46;24.70;47.10
60846;DHT22;47984;51.250;6.712;2022-08-19T14:31:14;24.70;47.10
60846;DHT22;47984;51.250;6.712;2022-08-19T14:33:46;24.80;47.00
60846;DHT22;47984;51.250;6.712;2022-08-19T14:36:14;24.80;47.00
60846;DHT22;47984;51.250;6.712;2022-08-19T14:38:41;24.80;46.90
60846;DHT22;47984;51.250;6.712;2022-08-19T14:41:10;24.80;46.90
60846;DHT22;47984;51.250;6.712;2022-08-19T14:43:46;24.80;46.90
60846;DHT22;47984;51.250;6.712;2022-08-19T14:46:17;24.80;46.90
60846;DHT22;47984;51.250;6.712;2022-08-19T14:48:48;24.80;46.80
60846;DHT22;47984;51.250;6.712;2022-08-19T14:51:19;24.90;46.90
60846;DHT22;47984;51.250;6.712;2022-08-19T14:53:48;24.90;46.80
60846;DHT22;47984;51.250;6.712;2022-08-19T14:56:17;24.90;46.80
60846;DHT22;47984;51.250;6.712;2022-08-19T14:58:53;24.90;46.70
60846;DHT22;47984;51.250;6.712;2022-08-19T15:01:21;24.90;46.70
60846;DHT22;47984;51.250;6.712;2022-08-19T15:03:49;25.00;46.70
60846;DHT22;47984;51.250;6.712;2022-08-19T15:06:19;25.00;46.60
60846;DHT22;47984;51.250;6.712;2022-08-19T15:08:47;25.00;46.60
60846;DHT22;47984;51.250;6.712;2022-08-19T15:11:16;25.00;46.60
60846;DHT22;47984;51.250;6.712;2022-08-19T15:13:47;25.00;46.60
60846;DHT22;47984;51.250;6.712;2022-08-19T15:16:15;25.00;46.60
60846;DHT22;47984;51.250;6.712;2022-08-19T15:18:44;25.10;46.70
60846;DHT22;47984;51.250;6.712;2022-08-19T15:21:13;25.10;46.60
60846;DHT22;47984;51.250;6.712;2022-08-19T15:23:53;25.10;46.60
60846;DHT22;47984;51.250;6.712;2022-08-19T15:26:22;25.10;46.60
60846;DHT22;47984;51.250;6.712;2022-08-19T15:28:49;25.10;46.40
60846;DHT22;47984;51.250;6.712;2022-08-19T15:31:17;25.10;46.40
60846;DHT22;47984;51.250;6.712;2022-08-19T15:33:55;25.10;46.40
60846;DHT22;47984;51.250;6.712;2022-08-19T15:36:24;25.10;46.40
60846;DHT22;47984;51.250;6.712;2022-08-19T15:38:53;25.10;46.40
60846;DHT22;47984;51.250;6.712;2022-08-19T15:41:23;25.10;46.40
60846;DHT22;47984;51.250;6.712;2022-08-19T15:43:57;25.10;47.00
60846;DHT22;47984;51.250;6.712;2022-08-19T15:46:27;25.10;46.40
60846;DHT22;47984;51.250;6.712;2022-08-19T15:48:57;25.20;46.40
60846;DHT22;47984;51.250;6.712;2022-08-19T15:51:27;25.10;46.30
60846;DHT22;47984;51.250;6.712;2022-08-19T15:53:56;25.20;46.40
60846;DHT22;47984;51.250;6.712;2022-08-19T15:56:25;25.20;46.40
60846;DHT22;47984;51.250;6.712;2022-08-19T15:59:24;25.20;46.40
60846;DHT22;47984;51.250;6.712;2022-08-19T16:02:13;25.20;46.40
60846;DHT22;47984;51.250;6.712;2022-08-19T16:04:59;25.20;46.40
60846;DHT22;47984;51.250;6.712;2022-08-19T16:07:44;25.20;46.30
60846;DHT22;47984;51.250;6.712;2022-08-19T16:10:13;25.20;46.30
60846;DHT22;47984;51.250;6.712;2022-08-19T16:12:52;25.20;46.30
60846;DHT22;47984;51.250;6.712;2022-08-19T16:15:19;25.20;46.30
60846;DHT22;47984;51.250;6.712;2022-08-19T16:17:46;25.20;46.30